Terminal Aerodrome Forecast
Issued by NWS Glasgow, MT

Home | Current Version | Previous Version | Text Only | Print | Product List | Glossary On
Versions: 1 2 3 4 5 6 7 8 9 10 11 12 13 14
000
FTUS45 KGGW 222300
TAFGGW
TAF
KGGW 222322Z 2300/2324 27016G26KT P6SM FEW070
     FM230400 28017G27KT 6SM -SHSN BLSN SCT015 BKN035
     FM230700 30018KT P6SM VCSH OVC025
     FM231200 31019G29KT 4SM -SN BLSN OVC020
     FM231700 32018G28KT P6SM OVC050=

USA.gov is the U.S. government's official web portal to all federal, state and local government web resources and services.